Falcon, KY (41426)

11:43 AM EDT on July 30, 2015 (GMT -0400)
Paintsville, KY | | Change Station
CLOSE
Current Station
Personal Weather Station
Location: Paintsville, KY
Elevation: 620 ft
Nearby Weather Stations

Elev 620 ft 37.82 °N, 82.82 °W | Updated 1 minute ago

Partly Cloudy
Partly Cloudy
83.4 °F
Feels Like 85 °F
N
2.0
Wind Variable Wind from NNW
Gusts 8.0 mph

Today
High -- | Low -- °F
--% Chance of Precip.
Yesterday
High -- | Low -- °F
Precip. -- in
6:33 AM 8:42 PM
Waxing Gibbous, 99% visible
Pressure 30.08 in
Visibility 10.0 miles
Clouds Scattered Clouds 2600 ft
Scattered Clouds 3900 ft
Mostly Cloudy 4800 ft
Heat Index 85 °F
Dew Point 66 °F
Humidity 55%
Rainfall 0.00 in
Snow Depth Not available.
UV 6.9 out of 12
Pollen 2.30 out of 12
Air Quality Not available.
Flu Activity Not available.
METAR KSJS 301535Z AUTO 03005KT 10SM SCT026 SCT039 BKN048 28/21 A3008 RMK AO2 T02760209

More Conditions Fewer Conditions

Pressure 30.08 in
Visibility 10.0 miles
Clouds Scattered Clouds 2600 ft
Scattered Clouds 3900 ft
Mostly Cloudy 4800 ft
Heat Index 85 °F
Dew Point 66 °F
Humidity 55%
Rainfall 0.00 in
Snow Depth Not available.
UV 6.9 out of 12
Pollen 2.30 out of 12
Air Quality Not available.
Flu Activity Not available.
METAR KSJS 301535Z AUTO 03005KT 10SM SCT026 SCT039 BKN048 28/21 A3008 RMK AO2 T02760209

More Conditions Fewer Conditions

10-Day Weather Forecast

×

Almanac

Astronomy

Jul. 30, 2015 Rise Set
Actual Time
Civil Twilight
Nautical Twilight
Astronomical Twilight
Moon
Length of Visible Light
Length of Day
Tomorrow will be .
, % of the Moon is Illuminated

Today's Extremes

State Highs State Lows

Community

WunderPhotos

Upload Photos

1,842,408 photos uploaded!

WunderBlogs® & News

Nearby

Air Quality

  Air Quality AQ Index Pollutant
Not available.

Snow Depth

Station Depth Elevation

Earthquake Activity

City Distance Mag. Time & Date
Minimum magnitude displayed is 2.5.

Coastal Water Temperatures

Place Temperature

Stations

Nearby Weather Stations

Station Location Temp. Windchill Dew Point Humidity Wind Precip. Elev Updated Type